Time;durP1;ratioP1;P1;durP2;ratioP2;P2;SDS_P1;SDS_P2;PMS_P1;PMS_P2;Temp;Humidity;BMP_temperature;BMP_pressure;BME280_temperature;BME280_humidity;BME280_pressure;Samples;Min_cycle;Max_cycle;Signal;HPM_P1;HPM_P2
2021/11/19 00:01:16;;;;;;;12.02;5.15;;;;;;;;;;5014480;28;20049;-82
2021/11/19 00:03:44;;;;;;;11.25;5.55;;;;;;;;;;5014162;28;20104;-82
2021/11/19 00:06:11;;;;;;;12.57;6.07;;;;;;;;;;5013917;28;20065;-81
2021/11/19 00:08:38;;;;;;;10.60;6.25;;;;;;;;;;5013024;28;20077;-82
2021/11/19 00:11:09;;;;;;;11.93;6.38;;;;;;;;;;5013220;28;20050;-83
2021/11/19 00:13:35;;;;;;;10.82;5.38;;;;;;;;;;5013676;28;20089;-82
2021/11/19 00:16:02;;;;;;;11.38;6.45;;;;;;;;;;5013481;28;20069;-84
2021/11/19 00:18:30;;;;;;;11.50;5.97;;;;;;;;;;5013060;28;20260;-81
2021/11/19 00:20:57;;;;;;;10.45;5.65;;;;;;;;;;5013434;28;20530;-81
2021/11/19 00:23:24;;;;;;;9.27;4.47;;;;;;;;;;5013213;28;20109;-82
2021/11/19 00:25:50;;;;;;;10.77;6.35;;;;;;;;;;5013364;28;20081;-81
2021/11/19 00:28:18;;;;;;;11.50;5.45;;;;;;;;;;5014678;28;20080;-83
2021/11/19 00:30:45;;;;;;;12.32;6.60;;;;;;;;;;5014906;28;20065;-81
2021/11/19 00:33:12;;;;;;;12.20;6.32;;;;;;;;;;5014615;28;20530;-82
2021/11/19 00:35:42;;;;;;;10.82;5.90;;;;;;;;;;5014931;28;20092;-83
2021/11/19 00:38:09;;;;;;;9.93;5.55;;;;;;;;;;5013523;28;20057;-83
2021/11/19 00:40:38;;;;;;;9.68;4.50;;;;;;;;;;5015867;28;20078;-83
2021/11/19 00:43:05;;;;;;;10.15;5.47;;;;;;;;;;5017279;28;20076;-82
2021/11/19 00:45:33;;;;;;;13.23;6.07;;;;;;;;;;5017403;28;20054;-84
2021/11/19 00:48:00;;;;;;;10.82;5.55;;;;;;;;;;5018451;28;20066;-82
2021/11/19 00:50:31;;;;;;;12.73;5.38;;;;;;;;;;5017865;28;20100;-82
2021/11/19 00:53:00;;;;;;;12.43;6.00;;;;;;;;;;5017414;28;20085;-82
2021/11/19 00:55:27;;;;;;;9.68;5.25;;;;;;;;;;5018012;28;20108;-82
2021/11/19 00:57:54;;;;;;;9.32;5.28;;;;;;;;;;5017762;28;21507;-82
2021/11/19 01:00:27;;;;;;;10.00;5.47;;;;;;;;;;5017761;28;20080;-82
2021/11/19 01:02:54;;;;;;;10.75;5.85;;;;;;;;;;5015318;28;20078;-82
2021/11/19 01:05:21;;;;;;;10.45;4.70;;;;;;;;;;5017581;28;20084;-81
2021/11/19 01:07:47;;;;;;;9.77;6.10;;;;;;;;;;5017449;28;20042;-83
2021/11/19 01:10:25;;;;;;;9.35;5.50;;;;;;;;;;5017454;28;20076;-81
2021/11/19 01:12:51;;;;;;;11.98;6.03;;;;;;;;;;5016712;28;20545;-83
2021/11/19 01:15:21;;;;;;;10.60;5.78;;;;;;;;;;5017502;28;20048;-82
2021/11/19 01:17:51;;;;;;;9.90;5.95;;;;;;;;;;5017461;28;20069;-83
2021/11/19 01:20:22;;;;;;;14.93;5.93;;;;;;;;;;5016698;28;20704;-83
2021/11/19 01:22:51;;;;;;;10.13;5.18;;;;;;;;;;5017160;28;20077;-83
2021/11/19 01:25:21;;;;;;;12.90;6.47;;;;;;;;;;5016757;28;20065;-82
2021/11/19 01:27:47;;;;;;;11.27;6.13;;;;;;;;;;5016372;28;20510;-83
2021/11/19 01:30:18;;;;;;;11.73;5.78;;;;;;;;;;5015636;28;20077;-82
2021/11/19 01:32:46;;;;;;;14.02;5.95;;;;;;;;;;5017285;28;20157;-82
2021/11/19 01:35:13;;;;;;;12.50;6.22;;;;;;;;;;5015634;28;20073;-82
2021/11/19 01:37:39;;;;;;;10.38;6.10;;;;;;;;;;5016051;28;20165;-82
2021/11/19 01:40:08;;;;;;;11.30;6.07;;;;;;;;;;5017739;28;20548;-82
2021/11/19 01:42:42;;;;;;;11.55;5.80;;;;;;;;;;5016401;28;20073;-83
2021/11/19 01:45:12;;;;;;;13.02;6.55;;;;;;;;;;5014952;28;20081;-84
2021/11/19 01:47:41;;;;;;;14.90;7.63;;;;;;;;;;5016005;28;20050;-83
2021/11/19 01:50:11;;;;;;;17.65;8.00;;;;;;;;;;5015416;28;20078;-82
2021/11/19 01:52:39;;;;;;;16.80;8.77;;;;;;;;;;5016789;28;20133;-82
2021/11/19 01:55:12;;;;;;;17.63;8.52;;;;;;;;;;5016419;28;20077;-82
2021/11/19 01:57:45;;;;;;;17.77;8.35;;;;;;;;;;5016513;28;20107;-81
2021/11/19 02:00:16;;;;;;;16.52;7.95;;;;;;;;;;5017425;28;20065;-84
2021/11/19 02:02:45;;;;;;;13.45;7.82;;;;;;;;;;5015758;28;20116;-82
2021/11/19 02:05:14;;;;;;;17.38;8.35;;;;;;;;;;5016852;28;20073;-82
2021/11/19 02:07:45;;;;;;;18.95;8.02;;;;;;;;;;5015937;28;20065;-83
2021/11/19 02:10:17;;;;;;;14.23;7.57;;;;;;;;;;5016639;28;20082;-81
2021/11/19 02:12:54;;;;;;;12.55;7.30;;;;;;;;;;5017029;28;20487;-81
2021/11/19 02:15:23;;;;;;;16.17;7.15;;;;;;;;;;5015543;28;20081;-83
2021/11/19 02:17:52;;;;;;;21.80;8.25;;;;;;;;;;5016576;28;20080;-82
2021/11/19 02:20:21;;;;;;;11.73;6.68;;;;;;;;;;5016480;28;20080;-83
2021/11/19 02:22:53;;;;;;;12.30;6.90;;;;;;;;;;5016351;28;20495;-83
2021/11/19 02:25:23;;;;;;;14.05;6.68;;;;;;;;;;5015835;28;20046;-83
2021/11/19 02:27:54;;;;;;;16.33;8.63;;;;;;;;;;5015373;28;20069;-81
2021/11/19 02:30:24;;;;;;;14.25;7.70;;;;;;;;;;5015181;28;20077;-83
2021/11/19 02:32:53;;;;;;;14.23;7.10;;;;;;;;;;5015444;28;20096;-80
2021/11/19 02:35:22;;;;;;;12.35;6.95;;;;;;;;;;5016481;28;20101;-83
2021/11/19 02:37:55;;;;;;;16.15;6.75;;;;;;;;;;5016602;28;20506;-82
2021/11/19 02:40:33;;;;;;;15.30;7.93;;;;;;;;;;5015600;28;20065;-82
2021/11/19 02:43:04;;;;;;;15.23;7.60;;;;;;;;;;5015304;28;20050;-81
2021/11/19 02:45:33;;;;;;;17.25;7.82;;;;;;;;;;5015925;28;20132;-83
2021/11/19 02:48:00;;;;;;;14.20;6.78;;;;;;;;;;5015191;28;20072;-82
2021/11/19 02:50:28;;;;;;;13.13;6.53;;;;;;;;;;5015101;28;20072;-80
2021/11/19 02:52:57;;;;;;;13.07;7.20;;;;;;;;;;5014840;28;20172;-82
2021/11/19 02:55:28;;;;;;;13.05;7.53;;;;;;;;;;5014556;28;20054;-82
2021/11/19 02:57:55;;;;;;;13.40;6.85;;;;;;;;;;5016085;28;20061;-82
2021/11/19 03:00:26;;;;;;;14.40;6.88;;;;;;;;;;5015025;28;20074;-82
2021/11/19 03:02:53;;;;;;;14.38;7.40;;;;;;;;;;5014960;28;20089;-82
2021/11/19 03:05:23;;;;;;;16.75;8.25;;;;;;;;;;5014868;28;20080;-84
2021/11/19 03:07:50;;;;;;;14.43;7.45;;;;;;;;;;5014731;28;20080;-83
2021/11/19 03:10:20;;;;;;;14.77;7.18;;;;;;;;;;5015501;28;20107;-83
2021/11/19 03:12:46;;;;;;;14.88;7.43;;;;;;;;;;5014119;28;20128;-82
2021/11/19 03:15:16;;;;;;;13.30;7.53;;;;;;;;;;5014233;28;20077;-81
2021/11/19 03:17:44;;;;;;;16.08;7.90;;;;;;;;;;5013877;28;20064;-82
2021/11/19 03:20:12;;;;;;;14.27;6.97;;;;;;;;;;5014823;28;20112;-82
2021/11/19 03:22:39;;;;;;;20.55;9.27;;;;;;;;;;5013549;28;20526;-85
2021/11/19 03:25:07;;;;;;;18.20;9.40;;;;;;;;;;5015583;28;20052;-82
2021/11/19 03:27:34;;;;;;;18.08;8.23;;;;;;;;;;5013811;28;20069;-83
2021/11/19 03:30:02;;;;;;;19.50;8.95;;;;;;;;;;5014741;28;20069;-81
2021/11/19 03:32:31;;;;;;;26.33;10.18;;;;;;;;;;5013902;28;20042;-81
2021/11/19 03:34:59;;;;;;;16.77;9.23;;;;;;;;;;5014199;28;20077;-82
2021/11/19 03:37:26;;;;;;;16.58;9.32;;;;;;;;;;5013937;28;20131;-82
2021/11/19 03:39:53;;;;;;;22.83;9.65;;;;;;;;;;5013521;28;20062;-82
2021/11/19 03:42:21;;;;;;;18.80;9.85;;;;;;;;;;5014328;28;20038;-83
2021/11/19 03:44:50;;;;;;;22.13;10.40;;;;;;;;;;5013667;28;20076;-83
2021/11/19 03:47:20;;;;;;;23.20;9.40;;;;;;;;;;5013294;28;20674;-82
2021/11/19 03:49:49;;;;;;;19.60;9.50;;;;;;;;;;5012784;28;20049;-82
2021/11/19 03:52:20;;;;;;;22.77;11.70;;;;;;;;;;5014197;28;20077;-81
2021/11/19 03:54:49;;;;;;;21.45;9.95;;;;;;;;;;5015024;28;20101;-84
2021/11/19 03:57:18;;;;;;;25.25;12.38;;;;;;;;;;5013315;28;20050;-82
2021/11/19 03:59:45;;;;;;;20.77;9.98;;;;;;;;;;5014112;28;20099;-81
2021/11/19 04:02:13;;;;;;;22.02;11.65;;;;;;;;;;5014609;28;20085;-81
2021/11/19 04:04:40;;;;;;;17.95;9.68;;;;;;;;;;5015011;28;20446;-83
2021/11/19 04:07:09;;;;;;;17.33;8.80;;;;;;;;;;5013928;28;20046;-82
2021/11/19 04:09:37;;;;;;;19.63;9.45;;;;;;;;;;5014625;28;20050;-83
2021/11/19 04:12:05;;;;;;;18.92;9.77;;;;;;;;;;5014067;28;20069;-85
2021/11/19 04:14:31;;;;;;;18.52;9.98;;;;;;;;;;5018260;28;20050;-82
2021/11/19 04:16:59;;;;;;;18.33;9.63;;;;;;;;;;5017900;28;20099;-82
2021/11/19 04:19:28;;;;;;;18.77;9.75;;;;;;;;;;5017732;28;20107;-82
2021/11/19 04:21:58;;;;;;;18.30;9.63;;;;;;;;;;5017978;28;20080;-82
2021/11/19 04:24:26;;;;;;;16.30;8.63;;;;;;;;;;5021985;28;20080;-83
2021/11/19 04:26:54;;;;;;;21.73;10.57;;;;;;;;;;5019817;28;20165;-81
2021/11/19 04:29:21;;;;;;;16.95;8.48;;;;;;;;;;5017864;28;20069;-82
2021/11/19 04:31:48;;;;;;;17.67;9.27;;;;;;;;;;5017899;28;20081;-82
2021/11/19 04:34:15;;;;;;;19.98;9.73;;;;;;;;;;5017633;28;20092;-81
2021/11/19 04:36:42;;;;;;;18.33;9.27;;;;;;;;;;5016502;28;20081;-82
2021/11/19 04:39:11;;;;;;;18.90;10.10;;;;;;;;;;5016466;28;20073;-82
2021/11/19 04:41:38;;;;;;;15.90;8.82;;;;;;;;;;5017374;28;20072;-81
2021/11/19 04:44:07;;;;;;;19.60;9.82;;;;;;;;;;5016776;28;20069;-83
2021/11/19 04:46:34;;;;;;;21.13;10.38;;;;;;;;;;5018026;28;20542;-83
2021/11/19 04:49:01;;;;;;;19.73;10.57;;;;;;;;;;5017565;28;20042;-81
2021/11/19 04:51:30;;;;;;;19.20;9.55;;;;;;;;;;5016824;28;20402;-81
2021/11/19 04:53:57;;;;;;;16.77;8.65;;;;;;;;;;5017742;28;20069;-82
2021/11/19 04:56:24;;;;;;;18.90;8.35;;;;;;;;;;5016460;28;21569;-82
2021/11/19 04:58:51;;;;;;;16.33;8.80;;;;;;;;;;5017506;28;20502;-82
2021/11/19 05:01:21;;;;;;;20.90;9.95;;;;;;;;;;5016495;28;20057;-84
2021/11/19 05:03:48;;;;;;;14.35;8.00;;;;;;;;;;5016064;28;20066;-82
2021/11/19 05:06:16;;;;;;;18.20;8.82;;;;;;;;;;5016020;28;20077;-83
2021/11/19 05:08:42;;;;;;;18.25;8.63;;;;;;;;;;5017441;28;20407;-81
2021/11/19 05:11:17;;;;;;;17.70;7.80;;;;;;;;;;5017808;28;20073;-82
2021/11/19 05:13:45;;;;;;;14.80;8.27;;;;;;;;;;5017627;28;20473;-82
2021/11/19 05:16:14;;;;;;;16.95;8.52;;;;;;;;;;5017590;28;20077;-83
2021/11/19 05:18:44;;;;;;;16.35;8.00;;;;;;;;;;5017271;28;20173;-83
2021/11/19 05:21:12;;;;;;;18.45;9.00;;;;;;;;;;5017238;28;20065;-82
2021/11/19 05:23:39;;;;;;;16.25;8.55;;;;;;;;;;5016884;28;20077;-82
2021/11/19 05:26:05;;;;;;;15.60;7.78;;;;;;;;;;5014583;28;20050;-83
2021/11/19 05:28:32;;;;;;;18.05;8.32;;;;;;;;;;5016091;28;20073;-82
2021/11/19 05:30:59;;;;;;;18.85;9.07;;;;;;;;;;5015738;28;20065;-82
2021/11/19 05:33:28;;;;;;;20.15;8.85;;;;;;;;;;5016555;28;20046;-84
2021/11/19 05:35:57;;;;;;;18.30;8.85;;;;;;;;;;5016252;28;20706;-82
2021/11/19 05:38:24;;;;;;;21.42;8.63;;;;;;;;;;5016175;28;20073;-82
2021/11/19 05:40:51;;;;;;;17.60;9.20;;;;;;;;;;5016202;28;20047;-85
2021/11/19 05:43:18;;;;;;;17.70;7.97;;;;;;;;;;5016031;28;20082;-83
2021/11/19 05:45:44;;;;;;;18.58;8.88;;;;;;;;;;5013066;28;20104;-81
2021/11/19 05:48:11;;;;;;;19.63;8.82;;;;;;;;;;5014667;28;20816;-82
2021/11/19 05:50:40;;;;;;;21.70;9.05;;;;;;;;;;5014192;28;20085;-82
2021/11/19 05:53:10;;;;;;;19.63;9.55;;;;;;;;;;5015114;28;20076;-80
2021/11/19 05:55:39;;;;;;;21.13;10.68;;;;;;;;;;5015048;28;20082;-82
2021/11/19 05:58:06;;;;;;;19.10;8.90;;;;;;;;;;5014413;28;20152;-81
2021/11/19 06:00:35;;;;;;;22.45;10.07;;;;;;;;;;5016417;28;20491;-82
2021/11/19 06:03:01;;;;;;;22.60;11.43;;;;;;;;;;5015289;28;20084;-81
2021/11/19 06:05:28;;;;;;;25.38;10.82;;;;;;;;;;5015244;28;20042;-81
2021/11/19 06:07:55;;;;;;;22.65;11.40;;;;;;;;;;5014958;28;20078;-84
2021/11/19 06:10:27;;;;;;;33.72;15.73;;;;;;;;;;5015583;28;20045;-81
2021/11/19 06:12:59;;;;;;;29.45;13.52;;;;;;;;;;5015021;28;20050;-81
2021/11/19 06:15:28;;;;;;;31.85;15.15;;;;;;;;;;5015091;28;20046;-82
2021/11/19 06:17:56;;;;;;;31.25;13.43;;;;;;;;;;5014667;28;20089;-80
2021/11/19 06:20:25;;;;;;;30.60;13.07;;;;;;;;;;5015720;28;20069;-81
2021/11/19 06:22:54;;;;;;;26.27;13.50;;;;;;;;;;5015352;28;20069;-81
2021/11/19 06:25:24;;;;;;;26.38;11.80;;;;;;;;;;5014736;28;20065;-81
2021/11/19 06:27:52;;;;;;;33.33;12.88;;;;;;;;;;5014567;28;20108;-84
2021/11/19 06:30:20;;;;;;;24.55;11.23;;;;;;;;;;5015095;28;20085;-80
2021/11/19 06:32:47;;;;;;;21.05;11.20;;;;;;;;;;5013624;28;20085;-80
2021/11/19 06:35:14;;;;;;;27.35;12.57;;;;;;;;;;5012439;28;20123;-80
2021/11/19 06:37:41;;;;;;;23.45;11.20;;;;;;;;;;5010969;28;20089;-82
2021/11/19 06:40:14;;;;;;;21.25;10.35;;;;;;;;;;5013877;28;20065;-81
2021/11/19 06:42:44;;;;;;;25.70;11.52;;;;;;;;;;5013786;28;20077;-81
2021/11/19 06:45:11;;;;;;;21.80;11.18;;;;;;;;;;5014205;28;20172;-82
2021/11/19 06:47:38;;;;;;;22.73;12.75;;;;;;;;;;5014263;28;20037;-81
2021/11/19 06:50:05;;;;;;;23.60;11.98;;;;;;;;;;5012718;28;20069;-82
2021/11/19 06:52:32;;;;;;;25.15;12.15;;;;;;;;;;5014019;28;20072;-82
2021/11/19 06:54:59;;;;;;;28.15;12.40;;;;;;;;;;5015162;28;20077;-80
2021/11/19 06:57:25;;;;;;;24.55;12.23;;;;;;;;;;5013625;28;20073;-84
2021/11/19 06:59:53;;;;;;;24.60;13.65;;;;;;;;;;5013988;28;20089;-82
2021/11/19 07:02:20;;;;;;;25.85;13.15;;;;;;;;;;5014530;28;20065;-83
2021/11/19 07:04:46;;;;;;;29.83;14.38;;;;;;;;;;5014682;28;20050;-80
2021/11/19 07:07:13;;;;;;;29.67;15.07;;;;;;;;;;5014853;28;20092;-81
2021/11/19 07:09:41;;;;;;;27.75;14.05;;;;;;;;;;5015807;28;20073;-81
2021/11/19 07:12:09;;;;;;;28.95;14.25;;;;;;;;;;5014637;28;20073;-81
2021/11/19 07:14:36;;;;;;;27.27;12.68;;;;;;;;;;5014635;28;20096;-81
2021/11/19 07:17:07;;;;;;;23.48;13.38;;;;;;;;;;5014329;28;20050;-81
2021/11/19 07:19:34;;;;;;;23.52;12.30;;;;;;;;;;5015702;28;20049;-85
2021/11/19 07:22:01;;;;;;;23.92;12.98;;;;;;;;;;5014889;28;20100;-81
2021/11/19 07:24:28;;;;;;;24.05;12.35;;;;;;;;;;5014682;28;20105;-81
2021/11/19 07:26:55;;;;;;;26.85;12.57;;;;;;;;;;5015192;28;20074;-81
2021/11/19 07:29:22;;;;;;;22.38;12.13;;;;;;;;;;5016022;28;20073;-80
2021/11/19 07:31:49;;;;;;;28.20;13.77;;;;;;;;;;5013999;28;20070;-80
2021/11/19 07:34:17;;;;;;;21.83;12.88;;;;;;;;;;5013080;28;20089;-81
2021/11/19 07:36:44;;;;;;;21.88;12.43;;;;;;;;;;5014134;28;20475;-81
2021/11/19 07:39:12;;;;;;;38.00;12.63;;;;;;;;;;5015361;28;20099;-82
2021/11/19 07:41:39;;;;;;;20.95;11.65;;;;;;;;;;5014784;28;20077;-81
2021/11/19 07:44:06;;;;;;;26.02;12.50;;;;;;;;;;5014688;28;20077;-82
2021/11/19 07:46:34;;;;;;;26.42;13.70;;;;;;;;;;5015218;28;20078;-81
2021/11/19 07:49:01;;;;;;;18.75;11.30;;;;;;;;;;5014606;28;20054;-81
2021/11/19 07:51:30;;;;;;;21.20;11.43;;;;;;;;;;5014861;28;20061;-81
2021/11/19 07:53:57;;;;;;;22.17;11.68;;;;;;;;;;5017546;28;20066;-83
2021/11/19 07:56:29;;;;;;;22.60;11.43;;;;;;;;;;5014804;28;20088;-80
2021/11/19 07:58:56;;;;;;;24.40;11.60;;;;;;;;;;5014577;28;20042;-82
2021/11/19 08:01:23;;;;;;;22.23;11.50;;;;;;;;;;5014693;28;20061;-84
2021/11/19 08:03:49;;;;;;;22.38;12.05;;;;;;;;;;5013670;28;20073;-82
2021/11/19 08:06:16;;;;;;;22.17;12.05;;;;;;;;;;5013984;28;20100;-81
2021/11/19 08:08:46;;;;;;;28.48;13.63;;;;;;;;;;5014210;28;20112;-81
2021/11/19 08:11:13;;;;;;;22.70;12.13;;;;;;;;;;5014583;28;20101;-82
2021/11/19 08:13:40;;;;;;;20.77;11.80;;;;;;;;;;5014267;28;20695;-81
2021/11/19 08:16:07;;;;;;;29.35;13.57;;;;;;;;;;5013001;28;20065;-81
2021/11/19 08:18:36;;;;;;;24.00;13.07;;;;;;;;;;5014590;28;20537;-81
2021/11/19 08:21:04;;;;;;;21.77;12.13;;;;;;;;;;5014417;28;20475;-80
2021/11/19 08:23:34;;;;;;;21.27;11.95;;;;;;;;;;5014814;28;20080;-81
2021/11/19 08:26:04;;;;;;;18.60;10.73;;;;;;;;;;5014699;28;20482;-80
2021/11/19 08:28:32;;;;;;;22.45;11.93;;;;;;;;;;5016979;28;20054;-80
2021/11/19 08:30:59;;;;;;;19.50;11.18;;;;;;;;;;5018144;28;20046;-80
2021/11/19 08:33:26;;;;;;;20.45;11.35;;;;;;;;;;5018329;28;20050;-82
2021/11/19 08:35:52;;;;;;;20.65;12.48;;;;;;;;;;5017984;28;20042;-81
2021/11/19 08:38:21;;;;;;;23.02;12.95;;;;;;;;;;5019231;28;20050;-82
2021/11/19 08:40:49;;;;;;;20.17;12.05;;;;;;;;;;5021691;28;20046;-80
2021/11/19 08:43:19;;;;;;;20.00;12.13;;;;;;;;;;5016475;28;20042;-82
2021/11/19 08:45:45;;;;;;;19.95;11.57;;;;;;;;;;5016969;28;20703;-81
2021/11/19 08:48:13;;;;;;;18.63;10.50;;;;;;;;;;5016518;28;20045;-82
2021/11/19 08:50:41;;;;;;;20.15;11.70;;;;;;;;;;5016411;28;20085;-81
2021/11/19 08:53:09;;;;;;;20.55;12.55;;;;;;;;;;5015289;28;20046;-81
2021/11/19 08:55:37;;;;;;;21.10;11.90;;;;;;;;;;5014750;28;20046;-82
2021/11/19 08:58:03;;;;;;;22.73;12.80;;;;;;;;;;5015706;28;20077;-79
2021/11/19 09:00:35;;;;;;;22.48;13.52;;;;;;;;;;5014284;28;20112;-81
2021/11/19 09:03:06;;;;;;;23.00;13.90;;;;;;;;;;5018659;28;20048;-81
2021/11/19 09:05:34;;;;;;;47.45;13.55;;;;;;;;;;5017724;28;20060;-81
2021/11/19 09:08:01;;;;;;;31.90;13.25;;;;;;;;;;5018271;28;20066;-83
2021/11/19 09:10:28;;;;;;;27.90;12.00;;;;;;;;;;5019407;28;20069;-81
2021/11/19 09:12:54;;;;;;;26.15;14.82;;;;;;;;;;5018210;28;20678;-82
2021/11/19 09:15:23;;;;;;;23.73;12.32;;;;;;;;;;5019030;28;20077;-82
2021/11/19 09:17:58;;;;;;;28.00;14.65;;;;;;;;;;5016574;28;20078;-82
2021/11/19 09:20:35;;;;;;;23.08;13.07;;;;;;;;;;5018325;28;20601;-82
2021/11/19 09:23:06;;;;;;;20.05;11.73;;;;;;;;;;5017176;28;20099;-81
2021/11/19 09:25:33;;;;;;;22.52;12.55;;;;;;;;;;5017483;28;20089;-80
2021/11/19 09:28:01;;;;;;;23.60;13.90;;;;;;;;;;5018746;28;20108;-81
2021/11/19 09:30:36;;;;;;;20.80;12.52;;;;;;;;;;5019390;28;20057;-82
2021/11/19 09:33:07;;;;;;;22.73;12.85;;;;;;;;;;5017646;28;20146;-82
2021/11/19 09:35:34;;;;;;;24.05;12.68;;;;;;;;;;5017036;28;20099;-83
2021/11/19 09:38:02;;;;;;;23.95;13.85;;;;;;;;;;5018242;28;20054;-81
2021/11/19 09:40:31;;;;;;;21.85;12.52;;;;;;;;;;5017901;28;20064;-81
2021/11/19 09:43:00;;;;;;;21.63;13.82;;;;;;;;;;5019156;28;20077;-81
2021/11/19 09:45:37;;;;;;;22.48;12.45;;;;;;;;;;5017215;28;20046;-80
2021/11/19 09:48:23;;;;;;;24.85;13.57;;;;;;;;;;5019676;28;20077;-81
2021/11/19 09:51:40;;;;;;;22.30;14.02;;;;;;;;;;5018398;28;20070;-82
2021/11/19 09:54:52;;;;;;;22.55;13.50;;;;;;;;;;5018049;28;20042;-82
2021/11/19 09:57:48;;;;;;;21.70;12.50;;;;;;;;;;5017530;28;20604;-80
2021/11/19 10:00:21;;;;;;;26.88;13.38;;;;;;;;;;5019386;28;20073;-81
2021/11/19 10:03:14;;;;;;;26.58;13.38;;;;;;;;;;5018233;28;20057;-81
2021/11/19 10:05:54;;;;;;;20.25;12.30;;;;;;;;;;5017869;28;20132;-81
2021/11/19 10:08:49;;;;;;;22.35;12.35;;;;;;;;;;5019199;28;20513;-82
2021/11/19 10:11:20;;;;;;;23.35;13.63;;;;;;;;;;5018119;28;20510;-82
2021/11/19 10:14:03;;;;;;;22.30;12.60;;;;;;;;;;5017703;28;20073;-80
2021/11/19 10:16:33;;;;;;;23.05;13.63;;;;;;;;;;5017801;28;20113;-80
2021/11/19 10:19:04;;;;;;;23.40;13.43;;;;;;;;;;5019561;28;20050;-81
2021/11/19 10:21:35;;;;;;;22.92;12.75;;;;;;;;;;5017801;28;20057;-80
2021/11/19 10:24:07;;;;;;;22.02;12.80;;;;;;;;;;5017682;28;20050;-81
2021/11/19 10:26:36;;;;;;;23.63;13.40;;;;;;;;;;5017628;28;20073;-81
2021/11/19 10:29:06;;;;;;;23.40;13.65;;;;;;;;;;5017751;28;21020;-81
2021/11/19 10:31:34;;;;;;;25.20;14.60;;;;;;;;;;5018609;28;20078;-82
2021/11/19 10:34:11;;;;;;;22.52;13.35;;;;;;;;;;5016704;28;20474;-80
2021/11/19 10:36:42;;;;;;;23.80;12.90;;;;;;;;;;5018983;28;20481;-82
2021/11/19 10:39:29;;;;;;;25.90;15.30;;;;;;;;;;5017645;28;20069;-84
2021/11/19 10:42:19;;;;;;;24.35;13.88;;;;;;;;;;5016876;28;20045;-82
2021/11/19 10:45:09;;;;;;;22.63;14.75;;;;;;;;;;5015414;28;20053;-81
2021/11/19 10:48:19;;;;;;;25.17;14.45;;;;;;;;;;5015461;28;20049;-80
2021/11/19 10:51:02;;;;;;;23.77;13.95;;;;;;;;;;5016034;28;20077;-81
2021/11/19 10:54:13;;;;;;;29.15;13.88;;;;;;;;;;5014696;28;20080;-82
2021/11/19 10:56:50;;;;;;;21.13;13.02;;;;;;;;;;5015225;28;20068;-82
2021/11/19 10:59:38;;;;;;;24.40;13.75;;;;;;;;;;5017495;28;20096;-81
2021/11/19 11:02:37;;;;;;;21.60;13.15;;;;;;;;;;5015427;28;20042;-82
2021/11/19 11:05:19;;;;;;;22.73;13.18;;;;;;;;;;5016216;28;20476;-81
2021/11/19 11:08:03;;;;;;;22.75;13.43;;;;;;;;;;5014853;28;20146;-81
2021/11/19 11:10:33;;;;;;;22.23;13.48;;;;;;;;;;5015410;28;20104;-81
2021/11/19 11:13:00;;;;;;;21.92;13.75;;;;;;;;;;5016265;28;20069;-82
2021/11/19 11:15:31;;;;;;;20.80;13.27;;;;;;;;;;5015911;28;20078;-81
2021/11/19 11:18:03;;;;;;;21.63;13.20;;;;;;;;;;5016123;28;20046;-82
2021/11/19 11:20:32;;;;;;;21.95;13.10;;;;;;;;;;5016921;28;20494;-79
2021/11/19 11:23:01;;;;;;;22.30;13.68;;;;;;;;;;5015390;28;20078;-81
2021/11/19 11:25:32;;;;;;;22.95;14.75;;;;;;;;;;5015291;28;20522;-81
2021/11/19 11:28:12;;;;;;;26.85;15.90;;;;;;;;;;5014698;28;20085;-82
2021/11/19 11:30:52;;;;;;;27.35;15.55;;;;;;;;;;5014435;28;20037;-83
2021/11/19 11:33:22;;;;;;;29.13;14.68;;;;;;;;;;5015592;28;20084;-82
2021/11/19 11:35:51;;;;;;;23.75;15.18;;;;;;;;;;5014424;28;20077;-81
2021/11/19 11:38:30;;;;;;;24.40;14.27;;;;;;;;;;5013884;28;20099;-82
2021/11/19 11:41:07;;;;;;;24.70;14.98;;;;;;;;;;5014250;28;20076;-84
2021/11/19 11:43:35;;;;;;;21.67;14.90;;;;;;;;;;5013406;28;20100;-82
2021/11/19 11:46:22;;;;;;;22.73;14.13;;;;;;;;;;5013989;28;20548;-82
2021/11/19 11:48:54;;;;;;;35.72;20.40;;;;;;;;;;5014140;28;20073;-82
2021/11/19 11:51:23;;;;;;;25.40;16.55;;;;;;;;;;5013755;28;20073;-82
2021/11/19 11:53:58;;;;;;;26.45;14.75;;;;;;;;;;5013744;28;20518;-83
2021/11/19 11:56:29;;;;;;;22.17;13.55;;;;;;;;;;5011854;28;20164;-83
2021/11/19 11:59:02;;;;;;;24.45;14.48;;;;;;;;;;5015698;28;20054;-83
2021/11/19 12:01:39;;;;;;;21.45;13.63;;;;;;;;;;5014211;28;20050;-82
2021/11/19 12:04:09;;;;;;;20.60;13.57;;;;;;;;;;5012963;28;20483;-83
2021/11/19 12:06:39;;;;;;;25.77;14.80;;;;;;;;;;5014421;28;21216;-84
2021/11/19 12:09:14;;;;;;;20.33;13.15;;;;;;;;;;5012901;28;20092;-82
2021/11/19 12:12:17;;;;;;;18.48;12.90;;;;;;;;;;5014234;28;20049;-83
2021/11/19 12:14:50;;;;;;;18.95;12.57;;;;;;;;;;5014462;28;20085;-82
2021/11/19 12:17:32;;;;;;;22.00;12.90;;;;;;;;;;5012846;28;20085;-83
2021/11/19 12:20:05;;;;;;;21.20;13.82;;;;;;;;;;5014143;28;20545;-83
2021/11/19 12:22:39;;;;;;;19.50;13.48;;;;;;;;;;5012881;28;20081;-83
2021/11/19 12:25:50;;;;;;;18.25;13.05;;;;;;;;;;5012502;28;20828;-83
2021/11/19 12:28:19;;;;;;;20.52;13.23;;;;;;;;;;5012974;28;20081;-82
2021/11/19 12:30:51;;;;;;;25.73;14.10;;;;;;;;;;5012327;28;20096;-82
2021/11/19 12:33:22;;;;;;;23.05;13.15;;;;;;;;;;5007744;28;20054;-82
2021/11/19 12:35:56;;;;;;;18.42;12.23;;;;;;;;;;5009744;28;20081;-81
2021/11/19 12:38:30;;;;;;;20.33;13.55;;;;;;;;;;5013252;28;20522;-82
2021/11/19 12:40:58;;;;;;;21.02;13.55;;;;;;;;;;5013871;28;20089;-82
2021/11/19 12:43:35;;;;;;;22.10;14.00;;;;;;;;;;5010756;28;20073;-81
2021/11/19 12:46:20;;;;;;;20.60;13.35;;;;;;;;;;5014051;28;20086;-82
2021/11/19 12:49:17;;;;;;;18.15;12.52;;;;;;;;;;5014059;28;20042;-81
2021/11/19 12:51:50;;;;;;;19.30;12.27;;;;;;;;;;5011577;28;20544;-81
2021/11/19 12:54:27;;;;;;;18.67;13.05;;;;;;;;;;5009491;28;20073;-81
2021/11/19 12:57:29;;;;;;;19.40;13.55;;;;;;;;;;5009813;28;20139;-81
2021/11/19 12:59:59;;;;;;;22.45;12.55;;;;;;;;;;5014981;28;20081;-82
2021/11/19 13:02:34;;;;;;;18.20;12.48;;;;;;;;;;5015603;28;20065;-80
2021/11/19 13:05:21;;;;;;;17.48;12.45;;;;;;;;;;5015418;28;20104;-82
2021/11/19 13:08:02;;;;;;;17.15;11.95;;;;;;;;;;5014345;28;20057;-81
2021/11/19 13:10:44;;;;;;;18.73;12.73;;;;;;;;;;5014148;28;20502;-81
2021/11/19 13:13:31;;;;;;;18.80;12.00;;;;;;;;;;5014218;28;20512;-82
2021/11/19 13:16:31;;;;;;;19.88;12.55;;;;;;;;;;5013375;28;20451;-81
2021/11/19 13:19:01;;;;;;;19.40;12.05;;;;;;;;;;5014729;28;20137;-81
2021/11/19 13:21:45;;;;;;;19.00;12.45;;;;;;;;;;5014991;28;20049;-81
2021/11/19 13:24:45;;;;;;;17.77;12.23;;;;;;;;;;5014884;28;20656;-81
2021/11/19 13:27:46;;;;;;;19.88;12.38;;;;;;;;;;5014934;28;20601;-81
2021/11/19 13:30:53;;;;;;;20.85;12.50;;;;;;;;;;5015185;28;20050;-81
2021/11/19 13:33:23;;;;;;;15.63;10.98;;;;;;;;;;5015781;28;20065;-82
2021/11/19 13:36:11;;;;;;;19.50;12.73;;;;;;;;;;5013711;28;20042;-78
2021/11/19 13:39:15;;;;;;;17.45;11.40;;;;;;;;;;5013345;28;20108;-81
2021/11/19 13:42:22;;;;;;;18.75;11.35;;;;;;;;;;5013364;28;20076;-80
2021/11/19 13:45:02;;;;;;;16.38;11.30;;;;;;;;;;5015727;28;20077;-82
2021/11/19 13:47:53;;;;;;;18.08;12.05;;;;;;;;;;5013469;28;20100;-82
2021/11/19 13:50:44;;;;;;;18.27;11.85;;;;;;;;;;5018830;28;20046;-81
2021/11/19 13:53:22;;;;;;;16.25;10.75;;;;;;;;;;5016539;28;20104;-82
2021/11/19 13:56:08;;;;;;;18.95;11.35;;;;;;;;;;5016819;28;20073;-82
2021/11/19 13:58:39;;;;;;;18.57;12.07;;;;;;;;;;5016104;28;20084;-83
2021/11/19 14:01:14;;;;;;;19.15;12.15;;;;;;;;;;5016046;28;20066;-82
2021/11/19 14:03:42;;;;;;;17.00;11.70;;;;;;;;;;5014967;28;20046;-82
2021/11/19 14:06:14;;;;;;;17.30;11.23;;;;;;;;;;5015837;28;20046;-81
2021/11/19 14:08:53;;;;;;;17.00;11.52;;;;;;;;;;5014284;28;21014;-80
2021/11/19 14:11:23;;;;;;;22.10;11.90;;;;;;;;;;5015715;28;20077;-81
2021/11/19 14:13:50;;;;;;;17.98;11.35;;;;;;;;;;5015295;28;20069;-80
2021/11/19 14:16:24;;;;;;;15.35;10.38;;;;;;;;;;5015468;28;20133;-81
2021/11/19 14:19:09;;;;;;;18.95;11.95;;;;;;;;;;5015873;28;20081;-82
2021/11/19 14:24:28;;;;;;;19.48;11.35;;;;;;;;;;5015547;28;20056;-81
2021/11/19 14:27:06;;;;;;;17.90;11.10;;;;;;;;;;5014944;28;20085;-81
2021/11/19 14:29:36;;;;;;;18.15;11.57;;;;;;;;;;5014704;28;20077;-80
2021/11/19 14:32:06;;;;;;;17.67;11.80;;;;;;;;;;5015399;28;20073;-81
2021/11/19 14:34:40;;;;;;;18.88;11.98;;;;;;;;;;5014420;28;20092;-81
2021/11/19 14:37:13;;;;;;;20.80;12.80;;;;;;;;;;5014402;28;20077;-82
2021/11/19 14:39:41;;;;;;;17.60;12.55;;;;;;;;;;5014682;28;20045;-81
2021/11/19 14:42:11;;;;;;;18.35;12.32;;;;;;;;;;5014462;28;20443;-82
2021/11/19 14:44:42;;;;;;;19.75;12.98;;;;;;;;;;5014490;28;20075;-81
2021/11/19 14:47:12;;;;;;;19.27;13.23;;;;;;;;;;5012990;28;20054;-81
2021/11/19 14:49:44;;;;;;;24.70;14.15;;;;;;;;;;5014634;28;20052;-81
2021/11/19 14:52:23;;;;;;;19.92;13.27;;;;;;;;;;5015243;28;20046;-80